createdAt,value
2018-06-25T00:01:51.257Z,98.20
2018-06-25T00:04:18.871Z,98.40
2018-06-25T00:06:46.593Z,98.70
2018-06-25T00:09:14.181Z,98.90
2018-06-25T00:11:41.693Z,99.00
2018-06-25T00:14:09.253Z,99.00
2018-06-25T00:16:36.801Z,99.20
2018-06-25T00:19:04.542Z,99.30
2018-06-25T00:21:32.140Z,99.30
2018-06-25T00:23:59.715Z,99.10
2018-06-25T00:26:27.296Z,99.00
2018-06-25T00:28:55.055Z,99.20
2018-06-25T00:31:22.587Z,99.20
2018-06-25T00:33:50.114Z,99.10
2018-06-25T00:36:17.679Z,99.30
2018-06-25T00:38:45.216Z,99.50
2018-06-25T00:41:12.780Z,99.50
2018-06-25T00:43:40.316Z,99.60
2018-06-25T00:46:07.864Z,99.70
2018-06-25T00:48:35.452Z,99.70
2018-06-25T00:51:03.028Z,99.80
2018-06-25T00:53:30.564Z,99.70
2018-06-25T00:55:58.116Z,99.70
2018-06-25T00:58:25.638Z,99.70
2018-06-25T01:00:53.134Z,99.80
2018-06-25T01:03:20.717Z,99.90
2018-06-25T01:05:48.238Z,99.90
2018-06-25T01:08:16.392Z,99.90
2018-06-25T01:10:43.917Z,99.50
2018-06-25T01:13:11.449Z,99.60
2018-06-25T01:15:39.014Z,99.80
2018-06-25T01:18:06.519Z,99.90
2018-06-25T01:20:34.320Z,99.90
2018-06-25T01:23:01.892Z,99.90
2018-06-25T01:25:29.442Z,99.90
2018-06-25T01:27:56.967Z,99.90
2018-06-25T01:30:24.486Z,99.90
2018-06-25T01:32:52.079Z,99.90
2018-06-25T01:35:19.623Z,99.90
2018-06-25T01:37:47.176Z,99.90
2018-06-25T01:40:14.725Z,99.90
2018-06-25T01:42:42.265Z,99.90
2018-06-25T01:45:09.831Z,99.90
2018-06-25T01:47:37.348Z,99.90
2018-06-25T01:50:04.922Z,99.90
2018-06-25T01:52:32.637Z,99.90
2018-06-25T01:55:00.160Z,99.90
2018-06-25T01:57:27.679Z,99.90
2018-06-25T01:59:55.213Z,99.90
2018-06-25T02:02:22.747Z,99.90
2018-06-25T02:04:50.307Z,99.90
2018-06-25T02:07:17.962Z,99.90
2018-06-25T02:09:45.486Z,99.90
2018-06-25T02:12:13.167Z,99.90
2018-06-25T02:14:40.681Z,99.90
2018-06-25T02:17:08.207Z,99.90
2018-06-25T02:19:35.717Z,99.90
2018-06-25T02:22:03.261Z,99.90
2018-06-25T02:24:30.850Z,99.90
2018-06-25T02:26:58.409Z,99.90
2018-06-25T02:29:25.965Z,99.90
2018-06-25T02:31:53.493Z,99.90
2018-06-25T02:34:21.045Z,99.90
2018-06-25T02:36:48.559Z,99.90
2018-06-25T02:39:16.148Z,99.90
2018-06-25T02:41:43.719Z,99.90
2018-06-25T02:44:11.292Z,99.90
2018-06-25T02:46:39.018Z,99.90
2018-06-25T02:49:06.577Z,99.90
2018-06-25T02:51:34.133Z,99.90
2018-06-25T02:54:01.677Z,99.90
2018-06-25T02:56:29.221Z,99.90
2018-06-25T02:58:56.775Z,99.90
2018-06-25T03:01:24.305Z,99.90
2018-06-25T03:03:51.839Z,99.90
2018-06-25T03:06:19.425Z,99.90
2018-06-25T03:08:47.055Z,99.90
2018-06-25T03:11:14.582Z,99.90
2018-06-25T03:13:42.099Z,99.90
2018-06-25T03:16:09.633Z,99.90
2018-06-25T03:18:37.257Z,99.90
2018-06-25T03:21:04.799Z,99.90
2018-06-25T03:23:32.599Z,99.90
2018-06-25T03:26:01.494Z,99.90
2018-06-25T03:28:29.028Z,99.90
2018-06-25T03:30:56.586Z,99.90
2018-06-25T03:33:24.140Z,99.90
2018-06-25T03:35:51.652Z,99.90
2018-06-25T03:38:19.249Z,99.90
2018-06-25T03:40:46.819Z,99.90
2018-06-25T03:43:14.456Z,99.90
2018-06-25T03:45:41.938Z,99.90
2018-06-25T03:48:09.484Z,99.90
2018-06-25T03:50:37.036Z,99.90
2018-06-25T03:53:04.914Z,99.90
2018-06-25T03:55:32.503Z,99.90
2018-06-25T03:58:00.042Z,99.90
2018-06-25T04:00:27.567Z,99.90
2018-06-25T04:02:55.172Z,99.90
2018-06-25T04:05:22.662Z,99.90
2018-06-25T04:07:50.326Z,99.90
2018-06-25T04:10:17.866Z,99.90
2018-06-25T04:12:45.376Z,99.90
2018-06-25T04:15:12.932Z,99.90
2018-06-25T04:17:40.470Z,99.90
2018-06-25T04:20:08.610Z,99.90
2018-06-25T04:22:36.221Z,99.90
2018-06-25T04:25:03.850Z,99.90
2018-06-25T04:27:31.399Z,99.90
2018-06-25T04:30:00.114Z,99.90
2018-06-25T04:32:27.838Z,99.90
2018-06-25T04:34:55.558Z,99.90
2018-06-25T04:37:24.075Z,99.90
2018-06-25T04:39:51.869Z,99.90
2018-06-25T04:42:19.400Z,99.90
2018-06-25T04:44:46.917Z,99.90
2018-06-25T04:47:14.473Z,99.90
2018-06-25T04:49:41.993Z,99.90
2018-06-25T04:52:09.577Z,99.90
2018-06-25T04:54:37.099Z,99.90
2018-06-25T04:57:04.665Z,99.90
2018-06-25T04:59:32.261Z,99.90
2018-06-25T05:01:59.817Z,99.90
2018-06-25T05:04:27.983Z,99.90
2018-06-25T05:06:55.585Z,99.90
2018-06-25T05:09:23.114Z,99.90
2018-06-25T05:11:50.664Z,99.90
2018-06-25T05:14:18.238Z,99.90
2018-06-25T05:16:45.789Z,99.90
2018-06-25T05:19:13.318Z,99.90
2018-06-25T05:21:40.853Z,99.90
2018-06-25T05:24:08.426Z,99.90
2018-06-25T05:26:35.963Z,99.90
2018-06-25T05:29:03.620Z,99.90
2018-06-25T05:31:31.348Z,99.90
2018-06-25T05:33:59.002Z,99.90
2018-06-25T05:36:26.575Z,99.90
2018-06-25T05:38:54.198Z,99.90
2018-06-25T05:41:21.748Z,99.90
2018-06-25T05:43:49.322Z,99.90
2018-06-25T05:46:16.914Z,99.90
2018-06-25T05:48:44.575Z,99.90
2018-06-25T05:51:12.159Z,99.90
2018-06-25T05:53:39.692Z,99.90
2018-06-25T05:56:07.400Z,99.90
2018-06-25T05:58:34.973Z,99.90
2018-06-25T06:01:02.640Z,99.90
2018-06-25T06:03:30.205Z,99.80
2018-06-25T06:05:57.869Z,99.80
2018-06-25T06:08:25.425Z,99.80
2018-06-25T06:10:52.963Z,99.20
2018-06-25T06:13:20.486Z,98.80
2018-06-25T06:15:48.056Z,98.60
2018-06-25T06:18:15.603Z,98.10
2018-06-25T06:20:43.190Z,98.00
2018-06-25T06:23:10.776Z,97.70
2018-06-25T06:25:38.348Z,97.50
2018-06-25T06:28:05.921Z,96.90
2018-06-25T06:30:33.460Z,97.00
2018-06-25T06:33:01.206Z,97.40
2018-06-25T06:35:28.925Z,97.30
2018-06-25T06:37:56.469Z,97.20
2018-06-25T06:40:24.018Z,97.30
2018-06-25T06:42:51.534Z,97.30
2018-06-25T06:45:19.152Z,97.50
2018-06-25T06:47:46.705Z,97.20
2018-06-25T06:50:14.218Z,97.30
2018-06-25T06:52:41.758Z,96.80
2018-06-25T06:55:09.281Z,96.60
2018-06-25T06:57:36.905Z,96.50
2018-06-25T07:00:04.829Z,96.80
2018-06-25T07:02:32.411Z,97.00
2018-06-25T07:05:00.015Z,96.20
2018-06-25T07:07:27.603Z,95.70
2018-06-25T07:09:55.208Z,95.20
2018-06-25T07:12:22.778Z,95.30
2018-06-25T07:14:50.324Z,95.20
2018-06-25T07:17:17.927Z,94.40
2018-06-25T07:19:45.463Z,93.50
2018-06-25T07:22:13.032Z,93.90
2018-06-25T07:24:40.596Z,93.60
2018-06-25T07:27:08.143Z,93.40
2018-06-25T07:29:35.688Z,93.40
2018-06-25T07:32:03.287Z,93.50
2018-06-25T07:34:30.873Z,93.20
2018-06-25T07:36:58.495Z,93.60
2018-06-25T07:39:26.053Z,93.70
2018-06-25T07:41:53.627Z,94.00
2018-06-25T07:44:21.193Z,93.90
2018-06-25T07:46:48.735Z,93.70
2018-06-25T07:49:16.269Z,92.90
2018-06-25T07:51:43.843Z,92.30
2018-06-25T07:54:11.378Z,91.80
2018-06-25T07:56:38.947Z,91.80
2018-06-25T07:59:06.492Z,92.10
2018-06-25T08:01:34.067Z,92.20
2018-06-25T08:04:04.005Z,91.50
2018-06-25T08:06:31.533Z,91.30
2018-06-25T08:08:59.123Z,90.90
2018-06-25T08:11:26.718Z,90.90
2018-06-25T08:13:54.340Z,90.20
2018-06-25T08:16:21.918Z,89.70
2018-06-25T08:18:49.496Z,88.80
2018-06-25T08:21:17.058Z,88.70
2018-06-25T08:23:44.587Z,89.70
2018-06-25T08:26:12.200Z,88.20
2018-06-25T08:28:39.784Z,89.80
2018-06-25T08:31:07.362Z,90.00
2018-06-25T08:33:34.964Z,89.20
2018-06-25T08:36:02.550Z,87.60
2018-06-25T08:38:30.104Z,89.00
2018-06-25T08:40:57.708Z,89.10
2018-06-25T08:43:25.343Z,87.30
2018-06-25T08:45:52.954Z,87.40
2018-06-25T08:48:20.492Z,86.00
2018-06-25T08:50:48.082Z,83.30
2018-06-25T08:53:15.635Z,84.00
2018-06-25T08:55:43.239Z,85.00
2018-06-25T08:58:10.774Z,83.80
2018-06-25T09:00:38.345Z,84.40
2018-06-25T09:03:06.015Z,83.30
2018-06-25T09:05:33.584Z,83.40
2018-06-25T09:08:01.112Z,82.90
2018-06-25T09:10:28.694Z,82.00
2018-06-25T09:12:56.250Z,81.80
2018-06-25T09:15:23.928Z,82.10
2018-06-25T09:17:51.415Z,82.30
2018-06-25T09:20:18.969Z,82.60
2018-06-25T09:22:46.532Z,82.50
2018-06-25T09:25:14.056Z,83.40
2018-06-25T09:27:46.511Z,84.50
2018-06-25T09:30:13.985Z,85.20
2018-06-25T09:32:41.550Z,85.20
2018-06-25T09:35:09.248Z,84.70
2018-06-25T09:37:36.797Z,84.70
2018-06-25T09:40:04.681Z,84.90
2018-06-25T09:42:32.201Z,83.90
2018-06-25T09:44:59.829Z,83.50
2018-06-25T09:47:27.410Z,83.60
2018-06-25T09:49:54.951Z,83.50
2018-06-25T09:52:22.508Z,83.30
2018-06-25T09:54:50.054Z,83.20
2018-06-25T09:57:17.613Z,83.90
2018-06-25T09:59:45.145Z,83.90
2018-06-25T10:02:12.729Z,84.00
2018-06-25T10:04:40.328Z,83.80
2018-06-25T10:07:07.881Z,82.00
2018-06-25T10:09:35.439Z,80.90
2018-06-25T10:12:03.001Z,81.10
2018-06-25T10:14:30.520Z,81.30
2018-06-25T10:16:58.087Z,81.10
2018-06-25T10:19:25.652Z,80.00
2018-06-25T10:21:53.207Z,79.70
2018-06-25T10:24:20.801Z,79.90
2018-06-25T10:26:48.465Z,79.80
2018-06-25T10:29:16.022Z,80.50
2018-06-25T10:31:43.642Z,80.90
2018-06-25T10:34:11.189Z,82.20
2018-06-25T10:36:38.740Z,84.40
2018-06-25T10:39:08.074Z,85.50
2018-06-25T10:41:35.774Z,86.10
2018-06-25T10:44:03.684Z,87.20
2018-06-25T10:46:31.216Z,88.00
2018-06-25T10:48:58.786Z,88.70
2018-06-25T10:51:26.340Z,89.40
2018-06-25T10:53:53.926Z,90.00
2018-06-25T10:56:21.462Z,89.70
2018-06-25T10:58:48.956Z,88.80
2018-06-25T11:01:16.498Z,87.80
2018-06-25T11:03:44.088Z,87.40
2018-06-25T11:06:11.651Z,86.50
2018-06-25T11:08:40.062Z,84.50
2018-06-25T11:11:07.724Z,83.20
2018-06-25T11:13:35.335Z,83.10
2018-06-25T11:16:02.958Z,82.30
2018-06-25T11:18:30.535Z,79.80
2018-06-25T11:20:58.149Z,78.80
2018-06-25T11:23:25.694Z,78.00
2018-06-25T11:25:53.244Z,78.00
2018-06-25T11:28:20.900Z,76.20
2018-06-25T11:30:48.420Z,74.70
2018-06-25T11:33:15.917Z,73.00
2018-06-25T11:35:43.462Z,72.00
2018-06-25T11:38:10.950Z,72.10
2018-06-25T11:40:38.526Z,71.70
2018-06-25T11:43:06.066Z,71.30
2018-06-25T11:45:33.642Z,69.70
2018-06-25T11:48:01.216Z,69.40
2018-06-25T11:50:28.747Z,68.40
2018-06-25T11:52:56.332Z,67.50
2018-06-25T11:55:23.892Z,67.30
2018-06-25T11:57:51.411Z,67.70
2018-06-25T12:00:18.975Z,67.60
2018-06-25T12:02:46.624Z,67.60
2018-06-25T12:05:14.153Z,67.30
2018-06-25T12:07:41.695Z,66.90
2018-06-25T12:10:09.269Z,67.90
2018-06-25T12:12:36.849Z,68.40
2018-06-25T12:15:04.529Z,67.00
2018-06-25T12:17:32.238Z,67.40
2018-06-25T12:19:59.802Z,68.10
2018-06-25T12:22:27.324Z,69.00
2018-06-25T12:24:54.910Z,69.90
2018-06-25T12:27:22.477Z,69.10
2018-06-25T12:29:50.041Z,68.70
2018-06-25T12:32:17.585Z,67.70
2018-06-25T12:34:45.159Z,67.30
2018-06-25T12:37:12.710Z,65.20
2018-06-25T12:39:40.242Z,64.80
2018-06-25T12:42:07.843Z,65.30
2018-06-25T12:44:35.376Z,66.80
2018-06-25T12:47:02.967Z,67.80
2018-06-25T12:49:30.530Z,66.60
2018-06-25T12:51:58.107Z,66.90
2018-06-25T12:54:25.744Z,67.00
2018-06-25T12:56:53.326Z,66.00
2018-06-25T12:59:20.888Z,66.40
2018-06-25T13:01:48.490Z,65.60
2018-06-25T13:04:16.149Z,64.80
2018-06-25T13:06:43.740Z,65.80
2018-06-25T13:09:12.384Z,65.40
2018-06-25T13:11:39.990Z,63.50
2018-06-25T13:14:07.897Z,63.90
2018-06-25T13:16:36.028Z,63.70
2018-06-25T13:19:03.984Z,63.10
2018-06-25T13:21:31.523Z,62.10
2018-06-25T13:23:59.216Z,61.50
2018-06-25T13:26:26.749Z,62.20
2018-06-25T13:28:54.556Z,61.90
2018-06-25T13:31:22.130Z,62.30
2018-06-25T13:33:49.684Z,62.20
2018-06-25T13:36:17.807Z,62.60
2018-06-25T13:38:45.370Z,64.10
2018-06-25T13:41:12.946Z,65.20
2018-06-25T13:43:40.539Z,66.90
2018-06-25T13:46:08.347Z,66.00
2018-06-25T13:48:36.061Z,65.40
2018-06-25T13:51:03.701Z,66.40
2018-06-25T13:53:31.283Z,64.20
2018-06-25T13:55:58.923Z,62.30
2018-06-25T13:58:26.495Z,61.30
2018-06-25T14:00:54.050Z,62.00
2018-06-25T14:03:21.661Z,62.80
2018-06-25T14:05:49.733Z,62.20
2018-06-25T14:08:17.350Z,62.30
2018-06-25T14:10:44.927Z,62.40
2018-06-25T14:13:12.525Z,62.80
2018-06-25T14:15:40.099Z,63.40
2018-06-25T14:18:07.721Z,64.50
2018-06-25T14:20:35.418Z,64.90
2018-06-25T14:23:03.015Z,65.30
2018-06-25T14:25:35.143Z,65.00
2018-06-25T14:28:08.460Z,63.80
2018-06-25T14:30:41.653Z,62.70
2018-06-25T14:33:09.237Z,62.00
2018-06-25T14:35:36.812Z,61.40
2018-06-25T14:38:04.424Z,60.00
2018-06-25T14:40:32.053Z,59.10
2018-06-25T14:42:59.655Z,58.60
2018-06-25T14:45:27.250Z,57.10
2018-06-25T14:47:54.862Z,58.20
2018-06-25T14:50:22.430Z,59.10
2018-06-25T14:52:50.041Z,59.20
2018-06-25T14:55:17.664Z,59.60
2018-06-25T14:57:45.245Z,59.30
2018-06-25T15:00:17.377Z,59.90
2018-06-25T15:02:45.035Z,60.10
2018-06-25T15:05:12.673Z,61.30
2018-06-25T15:07:40.187Z,61.10
2018-06-25T15:10:07.768Z,60.40
2018-06-25T15:12:35.445Z,59.70
2018-06-25T15:15:03.090Z,59.00
2018-06-25T15:17:30.701Z,59.00
2018-06-25T15:20:00.197Z,59.20
2018-06-25T15:22:28.145Z,59.20
2018-06-25T15:24:55.751Z,60.20
2018-06-25T15:27:23.366Z,60.10
2018-06-25T15:29:50.979Z,60.00
2018-06-25T15:32:18.550Z,60.50
2018-06-25T15:34:46.113Z,61.30
2018-06-25T15:37:13.766Z,61.50
2018-06-25T15:39:41.336Z,62.00
2018-06-25T15:42:08.963Z,62.00
2018-06-25T15:44:36.541Z,62.10
2018-06-25T15:47:04.176Z,62.10
2018-06-25T15:49:31.811Z,62.30
2018-06-25T15:51:59.389Z,62.50
2018-06-25T15:54:27.013Z,62.70
2018-06-25T15:56:54.615Z,63.00
2018-06-25T15:59:22.173Z,62.30
2018-06-25T16:01:49.776Z,61.50
2018-06-25T16:04:17.385Z,59.80
2018-06-25T16:06:45.046Z,59.00
2018-06-25T16:09:12.565Z,57.10
2018-06-25T16:11:40.198Z,56.00
2018-06-25T16:14:07.821Z,54.00
2018-06-25T16:16:35.387Z,51.30
2018-06-25T16:19:02.991Z,51.40
2018-06-25T16:21:30.542Z,50.70
2018-06-25T16:23:58.152Z,50.70
2018-06-25T16:26:25.693Z,50.60
2018-06-25T16:28:53.318Z,51.00
2018-06-25T16:31:20.909Z,51.70
2018-06-25T16:33:48.519Z,52.50
2018-06-25T16:36:16.128Z,53.40
2018-06-25T16:38:43.739Z,54.40
2018-06-25T16:41:11.343Z,54.80
2018-06-25T16:43:38.884Z,55.70
2018-06-25T16:46:06.543Z,56.80
2018-06-25T16:48:34.087Z,57.60
2018-06-25T16:51:01.745Z,58.30
2018-06-25T16:53:29.413Z,58.80
2018-06-25T16:55:56.993Z,59.40
2018-06-25T16:58:24.639Z,59.70
2018-06-25T17:00:52.283Z,59.60
2018-06-25T17:03:19.865Z,60.40
2018-06-25T17:05:47.513Z,61.40
2018-06-25T17:08:15.081Z,62.90
2018-06-25T17:10:42.698Z,63.90
2018-06-25T17:13:10.279Z,65.00
2018-06-25T17:15:37.891Z,65.40
2018-06-25T17:18:05.590Z,66.10
2018-06-25T17:20:33.174Z,66.60
2018-06-25T17:23:00.704Z,66.50
2018-06-25T17:25:28.268Z,66.50
2018-06-25T17:27:55.811Z,66.60
2018-06-25T17:30:23.420Z,67.10
2018-06-25T17:32:50.994Z,67.70
2018-06-25T17:35:18.623Z,68.00
2018-06-25T17:37:46.250Z,68.20
2018-06-25T17:40:13.803Z,68.80
2018-06-25T17:42:41.383Z,69.20
2018-06-25T17:45:08.978Z,69.70
2018-06-25T17:47:36.564Z,69.80
2018-06-25T17:50:04.322Z,70.00
2018-06-25T17:52:31.906Z,70.40
2018-06-25T17:54:59.546Z,70.80
2018-06-25T17:57:27.167Z,71.00
2018-06-25T17:59:54.827Z,71.30
2018-06-25T18:02:22.480Z,71.30
2018-06-25T18:04:50.301Z,71.80
2018-06-25T18:07:18.028Z,72.10
2018-06-25T18:09:45.730Z,72.40
2018-06-25T18:12:13.412Z,72.70
2018-06-25T18:14:41.039Z,73.20
2018-06-25T18:17:08.721Z,73.60
2018-06-25T18:19:37.340Z,74.00
2018-06-25T18:22:05.098Z,74.70
2018-06-25T18:24:32.763Z,75.40
2018-06-25T18:27:00.402Z,76.60
2018-06-25T18:29:28.052Z,76.60
2018-06-25T18:31:55.761Z,77.00
2018-06-25T18:34:23.364Z,77.40
2018-06-25T18:36:51.124Z,77.70
2018-06-25T18:39:19.952Z,77.90
2018-06-25T18:41:47.658Z,78.30
2018-06-25T18:44:15.452Z,79.00
2018-06-25T18:46:44.535Z,79.10
2018-06-25T18:49:12.245Z,79.10
2018-06-25T18:51:39.866Z,79.40
2018-06-25T18:54:07.578Z,79.60
2018-06-25T18:56:35.346Z,79.90
2018-06-25T18:59:03.242Z,80.70
2018-06-25T19:01:30.963Z,81.70
2018-06-25T19:03:58.641Z,81.90
2018-06-25T19:06:26.431Z,81.90
2018-06-25T19:08:54.145Z,82.20
2018-06-25T19:11:21.818Z,82.50
2018-06-25T19:13:49.532Z,82.70
2018-06-25T19:16:17.899Z,82.90
2018-06-25T19:18:45.826Z,83.30
2018-06-25T19:21:13.520Z,83.50
2018-06-25T19:23:41.273Z,83.90
2018-06-25T19:26:08.953Z,84.20
2018-06-25T19:28:36.704Z,84.30
2018-06-25T19:31:04.385Z,84.60
2018-06-25T19:33:32.080Z,84.90
2018-06-25T19:35:59.699Z,85.20
2018-06-25T19:38:27.404Z,85.50
2018-06-25T19:40:55.075Z,85.80
2018-06-25T19:43:22.767Z,86.00
2018-06-25T19:48:18.065Z,86.60
2018-06-25T19:50:45.702Z,86.90
2018-06-25T19:53:13.365Z,87.40
2018-06-25T19:55:41.009Z,87.70
2018-06-25T19:58:08.660Z,87.90
2018-06-25T20:00:36.282Z,88.10
2018-06-25T20:03:03.884Z,88.10
2018-06-25T20:05:31.520Z,88.20
2018-06-25T20:07:59.143Z,88.20
2018-06-25T20:10:26.784Z,88.30
2018-06-25T20:12:54.454Z,88.60
2018-06-25T20:15:22.218Z,88.80
2018-06-25T20:17:49.821Z,89.00
2018-06-25T20:20:17.503Z,89.30
2018-06-25T20:22:45.107Z,89.70
2018-06-25T20:25:12.751Z,90.00
2018-06-25T20:27:40.371Z,90.10
2018-06-25T20:30:08.451Z,90.20
2018-06-25T20:32:36.466Z,90.30
2018-06-25T20:35:04.818Z,90.50
2018-06-25T20:37:32.366Z,90.60
2018-06-25T20:39:59.913Z,90.50
2018-06-25T20:42:27.504Z,90.50
2018-06-25T20:44:55.085Z,90.70
2018-06-25T20:47:22.735Z,90.80
2018-06-25T20:49:50.335Z,90.80
2018-06-25T20:52:17.889Z,90.80
2018-06-25T20:54:45.443Z,90.90
2018-06-25T20:57:12.997Z,90.90
2018-06-25T20:59:40.609Z,91.00
2018-06-25T21:02:08.219Z,90.90
2018-06-25T21:04:35.817Z,90.90
2018-06-25T21:07:03.475Z,90.90
2018-06-25T21:09:31.058Z,91.00
2018-06-25T21:11:58.654Z,91.10
2018-06-25T21:14:26.257Z,91.20
2018-06-25T21:16:53.883Z,91.30
2018-06-25T21:21:48.971Z,91.50
2018-06-25T21:24:16.527Z,91.70
2018-06-25T21:26:44.094Z,91.80
2018-06-25T21:29:11.664Z,92.10
2018-06-25T21:31:39.246Z,92.30
2018-06-25T21:34:06.854Z,92.30
2018-06-25T21:36:34.486Z,92.40
2018-06-25T21:39:02.076Z,92.60
2018-06-25T21:41:29.782Z,92.60
2018-06-25T21:43:57.376Z,92.70
2018-06-25T21:46:25.063Z,92.90
2018-06-25T21:48:52.578Z,93.00
2018-06-25T21:51:20.201Z,93.10
2018-06-25T21:53:47.754Z,93.50
2018-06-25T21:56:15.300Z,93.40
2018-06-25T21:58:42.880Z,93.50
2018-06-25T22:01:10.474Z,93.60
2018-06-25T22:03:38.020Z,93.70
2018-06-25T22:06:05.874Z,93.90
2018-06-25T22:08:33.402Z,94.00
2018-06-25T22:11:00.948Z,94.10
2018-06-25T22:13:28.605Z,94.20
2018-06-25T22:15:56.155Z,94.20
2018-06-25T22:18:23.895Z,94.30
2018-06-25T22:20:51.488Z,94.30
2018-06-25T22:23:20.639Z,94.50
2018-06-25T22:25:48.182Z,94.50
2018-06-25T22:28:15.748Z,94.60
2018-06-25T22:30:43.318Z,94.70
2018-06-25T22:33:10.883Z,94.70
2018-06-25T22:35:38.440Z,94.80
2018-06-25T22:38:05.994Z,94.80
2018-06-25T22:40:33.512Z,95.00
2018-06-25T22:43:01.049Z,95.00
2018-06-25T22:45:28.624Z,95.10
2018-06-25T22:47:56.177Z,95.10
2018-06-25T22:50:23.713Z,95.10
2018-06-25T22:52:51.243Z,95.10
2018-06-25T22:55:18.799Z,95.20
2018-06-25T22:57:46.331Z,95.30
2018-06-25T23:00:13.897Z,95.30
2018-06-25T23:02:41.470Z,95.40
2018-06-25T23:05:09.122Z,95.40
2018-06-25T23:07:36.663Z,95.50
2018-06-25T23:10:04.281Z,95.60
2018-06-25T23:12:31.795Z,95.60
2018-06-25T23:14:59.379Z,95.70
2018-06-25T23:17:26.920Z,95.70
2018-06-25T23:19:54.522Z,95.70
2018-06-25T23:22:22.109Z,95.80
2018-06-25T23:24:49.657Z,95.90
2018-06-25T23:27:17.193Z,96.00
2018-06-25T23:29:44.789Z,96.00
2018-06-25T23:32:13.165Z,96.10
2018-06-25T23:34:40.709Z,96.10
2018-06-25T23:37:08.252Z,96.10
2018-06-25T23:39:35.801Z,96.10
2018-06-25T23:42:03.383Z,96.10
2018-06-25T23:44:30.928Z,96.20
2018-06-25T23:46:58.525Z,96.30
2018-06-25T23:49:26.079Z,96.30
2018-06-25T23:51:53.619Z,96.40
2018-06-25T23:54:21.165Z,96.40
2018-06-25T23:56:48.716Z,96.60
2018-06-25T23:59:16.271Z,96.70
